createdAt,value
2023-02-05T01:48:12.024Z,1.70
2023-02-05T02:56:16.070Z,1.75
2023-02-05T03:44:41.304Z,1.70
2023-02-05T03:47:26.675Z,1.60
2023-02-05T03:50:19.091Z,2.42
2023-02-05T03:55:29.095Z,1.87
2023-02-05T04:17:43.123Z,4.15
2023-02-05T06:20:59.106Z,3.45
2023-02-05T06:23:26.522Z,2.80
2023-02-05T06:25:54.202Z,2.28
2023-02-05T06:28:21.558Z,2.70
2023-02-05T06:50:29.166Z,3.08
2023-02-05T07:32:15.636Z,3.37
2023-02-05T07:34:43.941Z,3.25
2023-02-05T07:37:15.825Z,2.75
2023-02-05T07:39:43.534Z,3.20
2023-02-05T07:42:11.163Z,2.62
2023-02-05T07:44:41.301Z,2.92
2023-02-05T07:47:09.004Z,2.67
2023-02-05T07:49:36.572Z,2.20
2023-02-05T07:52:04.134Z,4.37
2023-02-05T07:54:31.805Z,3.97
2023-02-05T07:57:00.456Z,3.53
2023-02-05T07:59:28.048Z,2.42
2023-02-05T08:01:55.777Z,2.05
2023-02-05T08:04:23.745Z,1.95
2023-02-05T08:06:51.309Z,1.95
2023-02-05T08:09:18.692Z,2.10
2023-02-05T08:11:46.750Z,2.45
2023-02-05T08:14:14.184Z,6.30
2023-02-05T09:23:25.095Z,3.15
2023-02-05T09:25:52.845Z,2.45
2023-02-05T09:28:20.281Z,1.85
2023-02-05T09:30:47.765Z,1.62
2023-02-05T09:33:15.611Z,1.75
2023-02-05T09:35:44.474Z,2.08
2023-02-05T09:38:15.957Z,1.52
2023-02-05T09:41:16.792Z,2.50
2023-02-05T09:43:58.345Z,2.50
2023-02-05T09:46:27.861Z,1.33
2023-02-05T09:49:18.832Z,2.10
2023-02-05T09:51:49.975Z,2.22
2023-02-05T09:54:22.011Z,1.60
2023-02-05T09:56:50.824Z,1.75
2023-02-05T09:59:22.452Z,2.47
2023-02-05T10:01:56.783Z,2.03
2023-02-05T10:04:25.299Z,1.65
2023-02-05T10:07:44.216Z,3.42
2023-02-05T10:10:29.392Z,1.52
2023-02-05T10:18:48.715Z,2.90
2023-02-05T10:21:22.335Z,2.30
2023-02-05T10:24:01.917Z,2.40
2023-02-05T10:26:50.839Z,2.62
2023-02-05T10:29:38.028Z,2.97
2023-02-05T10:32:23.631Z,2.42
2023-02-05T10:34:59.980Z,2.03
2023-02-05T10:37:36.647Z,2.03
2023-02-05T10:40:12.374Z,1.90
2023-02-05T10:42:44.342Z,1.70
2023-02-05T10:45:11.651Z,1.80
2023-02-05T10:47:53.706Z,3.12
2023-02-05T11:20:36.691Z,2.90
2023-02-05T11:23:07.621Z,4.23
2023-02-05T11:25:35.183Z,4.43
2023-02-05T11:30:50.462Z,1.60
2023-02-05T11:50:56.708Z,2.67
2023-02-05T11:53:24.762Z,4.80
2023-02-05T11:55:55.051Z,2.92
2023-02-05T11:58:37.062Z,2.53
2023-02-05T12:01:24.259Z,2.28
2023-02-05T12:03:59.989Z,2.97
2023-02-05T12:06:33.977Z,2.10
2023-02-05T12:09:03.005Z,2.40
2023-02-05T12:12:06.865Z,1.80
2023-02-05T12:14:42.520Z,2.10
2023-02-05T12:17:32.478Z,2.20
2023-02-05T12:20:21.843Z,2.78
2023-02-05T12:23:20.299Z,2.67
2023-02-05T12:26:06.731Z,1.90
2023-02-05T12:28:41.133Z,1.85
2023-02-05T12:31:22.259Z,2.70
2023-02-05T12:34:01.926Z,1.58
2023-02-05T13:37:04.148Z,1.20
2023-02-05T16:47:11.849Z,4.68
2023-02-05T16:57:37.873Z,5.00
2023-02-05T17:00:18.012Z,4.03
2023-02-05T17:02:47.193Z,4.05
2023-02-05T17:05:27.564Z,17.58
2023-02-05T17:18:30.285Z,9.15
2023-02-05T17:21:27.995Z,9.02
2023-02-05T17:23:59.772Z,13.68
2023-02-05T17:26:32.676Z,15.88
2023-02-05T17:29:04.865Z,9.90
2023-02-05T17:31:39.758Z,8.32
2023-02-05T17:34:10.031Z,6.35
2023-02-05T17:36:38.734Z,7.97
2023-02-05T17:39:07.306Z,8.23
2023-02-05T17:41:56.468Z,6.03
2023-02-05T17:44:25.900Z,6.30
2023-02-05T17:46:56.085Z,7.10
2023-02-05T17:49:24.306Z,7.10
2023-02-05T17:51:54.890Z,6.53
2023-02-05T17:54:25.599Z,6.30
2023-02-05T17:56:55.932Z,12.10
2023-02-05T17:59:25.535Z,13.38
2023-02-05T18:01:53.906Z,14.30
2023-02-05T18:04:22.783Z,10.30
2023-02-05T18:06:51.712Z,12.18
2023-02-05T18:09:20.549Z,10.73
2023-02-05T18:11:50.006Z,12.23
2023-02-05T18:14:18.588Z,10.32
2023-02-05T18:16:47.353Z,10.25
2023-02-05T18:19:16.339Z,12.75
2023-02-05T18:21:47.174Z,8.73
2023-02-05T18:24:15.735Z,6.65
2023-02-05T18:26:44.560Z,8.52
2023-02-05T18:29:12.795Z,10.48
2023-02-05T18:31:42.090Z,9.65
2023-02-05T18:34:12.793Z,9.55
2023-02-05T19:11:42.275Z,5.57
2023-02-05T19:14:13.533Z,6.30
2023-02-05T19:16:43.126Z,6.90
2023-02-05T19:19:14.743Z,6.78
2023-02-05T19:21:45.286Z,7.45
2023-02-05T19:24:14.508Z,10.23
2023-02-05T19:26:45.825Z,9.95
2023-02-05T19:29:20.601Z,9.63
2023-02-05T19:31:49.628Z,9.50
2023-02-05T19:34:18.496Z,10.75
2023-02-05T19:36:49.008Z,9.43
2023-02-05T19:39:20.217Z,9.25
2023-02-05T19:49:22.170Z,23.48
2023-02-05T19:54:22.892Z,56.97
2023-02-05T19:56:52.695Z,24.20
2023-02-05T19:59:21.711Z,19.75
2023-02-05T20:01:50.880Z,19.42
2023-02-05T20:04:23.338Z,33.20
2023-02-05T20:06:56.478Z,42.95
2023-02-05T20:09:26.440Z,48.30
2023-02-05T20:11:55.893Z,36.83
2023-02-05T20:14:25.497Z,31.35
2023-02-05T20:16:54.094Z,24.37
2023-02-05T20:19:22.716Z,31.75
2023-02-05T20:21:52.781Z,33.85
2023-02-05T20:24:21.632Z,31.40
2023-02-05T20:26:50.485Z,33.15
2023-02-05T20:29:37.821Z,28.52
2023-02-05T20:32:07.487Z,26.87
2023-02-05T20:34:37.225Z,25.37
2023-02-05T20:37:09.123Z,22.60
2023-02-05T21:12:02.593Z,9.55
2023-02-05T21:19:32.421Z,9.77
2023-02-05T21:22:00.816Z,9.82
2023-02-05T21:29:24.227Z,9.63
2023-02-05T21:31:56.144Z,9.90
2023-02-05T21:34:27.678Z,9.10
2023-02-05T21:36:56.173Z,9.60
2023-02-05T21:46:46.926Z,8.85
2023-02-05T21:49:14.571Z,7.95
2023-02-05T21:51:42.525Z,7.78
2023-02-05T21:54:10.690Z,7.43
2023-02-05T21:56:40.837Z,8.30
2023-02-05T21:59:10.082Z,9.30
2023-02-05T22:01:38.406Z,9.70
2023-02-05T22:04:12.260Z,9.68
2023-02-05T22:06:40.008Z,9.27
2023-02-05T22:09:09.315Z,7.93
2023-02-05T22:11:38.509Z,8.85
2023-02-05T22:14:06.552Z,9.63
2023-02-05T22:16:35.184Z,10.85
2023-02-05T22:19:04.225Z,9.32
2023-02-05T22:21:40.556Z,9.25
2023-02-05T22:24:10.719Z,9.85
2023-02-05T22:26:39.641Z,10.65
2023-02-05T22:29:08.542Z,10.68
2023-02-05T22:31:36.390Z,10.80
2023-02-05T22:34:03.931Z,10.35
2023-02-05T22:36:33.315Z,11.65
2023-02-05T22:39:03.816Z,10.70
2023-02-05T22:41:33.653Z,10.60
2023-02-05T22:44:02.429Z,10.82
2023-02-05T22:46:31.693Z,9.18
2023-02-05T23:01:28.089Z,9.40
2023-02-05T23:03:56.774Z,9.68
2023-02-05T23:08:55.659Z,9.35
2023-02-05T23:11:23.853Z,8.60
2023-02-05T23:16:22.355Z,9.35
2023-02-05T23:18:53.691Z,8.75
2023-02-05T23:28:51.244Z,9.93
2023-02-05T23:31:19.365Z,9.07
2023-02-05T23:33:46.857Z,8.77
2023-02-05T23:36:14.574Z,8.48
2023-02-05T23:38:42.397Z,8.90
2023-02-05T23:41:09.964Z,8.98
2023-02-05T23:53:27.953Z,7.50
